createdAt,value
2023-04-25T00:00:21.190Z,100125.41
2023-04-25T00:02:48.820Z,100128.28
2023-04-25T00:05:17.321Z,100125.56
2023-04-25T00:07:44.618Z,100123.63
2023-04-25T00:10:12.710Z,100130.31
2023-04-25T00:12:39.960Z,100126.97
2023-04-25T00:15:07.636Z,100121.63
2023-04-25T00:17:35.857Z,100134.16
2023-04-25T00:20:06.080Z,100126.63
2023-04-25T00:22:35.257Z,100126.88
2023-04-25T00:25:02.903Z,100136.72
2023-04-25T00:27:30.166Z,100122.53
2023-04-25T00:29:57.083Z,100129.19
2023-04-25T00:32:24.146Z,100118.94
2023-04-25T00:34:51.314Z,100125.66
2023-04-25T00:37:19.253Z,100129.13
2023-04-25T00:39:46.340Z,100135.09
2023-04-25T00:42:13.884Z,100134.59
2023-04-25T00:44:40.967Z,100127.56
2023-04-25T00:47:08.364Z,100123.34
2023-04-25T00:49:35.304Z,100121.72
2023-04-25T00:52:02.466Z,100118.25
2023-04-25T00:54:29.528Z,100121.47
2023-04-25T00:56:56.572Z,100127.63
2023-04-25T00:59:23.696Z,100122.59
2023-04-25T01:01:51.374Z,100124.19
2023-04-25T01:04:18.838Z,100114.00
2023-04-25T01:06:46.772Z,100127.38
2023-04-25T01:09:14.221Z,100108.16
2023-04-25T01:11:41.273Z,100113.00
2023-04-25T01:14:08.559Z,100118.34
2023-04-25T01:16:35.814Z,100115.94
2023-04-25T01:19:13.433Z,100111.38
2023-04-25T01:21:41.035Z,100112.69
2023-04-25T01:24:08.896Z,100107.91
2023-04-25T01:26:37.055Z,100116.22
2023-04-25T01:29:06.118Z,100111.19
2023-04-25T01:31:34.622Z,100110.63
2023-04-25T01:34:01.954Z,100104.78
2023-04-25T01:36:30.259Z,100116.78
2023-04-25T01:38:58.000Z,100093.78
2023-04-25T01:41:25.330Z,100106.97
2023-04-25T01:43:52.636Z,100105.91
2023-04-25T01:46:20.164Z,100113.38
2023-04-25T01:48:47.736Z,100116.16
2023-04-25T01:51:14.907Z,100114.50
2023-04-25T01:53:42.417Z,100109.69
2023-04-25T01:56:09.668Z,100114.56
2023-04-25T01:58:37.154Z,100117.78
2023-04-25T02:01:23.501Z,100106.78
2023-04-25T02:04:07.726Z,100121.00
2023-04-25T02:06:37.386Z,100109.00
2023-04-25T02:09:04.400Z,100100.66
2023-04-25T02:11:32.613Z,100125.91
2023-04-25T02:14:25.424Z,100113.59
2023-04-25T02:17:01.651Z,100113.53
2023-04-25T02:19:31.062Z,100117.06
2023-04-25T02:21:59.015Z,100120.56
2023-04-25T02:24:26.232Z,100108.50
2023-04-25T02:26:53.590Z,100117.88
2023-04-25T02:29:20.742Z,100117.13
2023-04-25T02:31:48.068Z,100117.31
2023-04-25T02:34:15.446Z,100119.19
2023-04-25T02:36:42.402Z,100123.53
2023-04-25T02:39:09.257Z,100121.91
2023-04-25T02:41:36.311Z,100112.56
2023-04-25T02:44:03.199Z,100111.72
2023-04-25T02:46:38.990Z,100100.97
2023-04-25T02:49:07.587Z,100109.03
2023-04-25T02:51:35.360Z,100112.28
2023-04-25T02:54:02.395Z,100117.31
2023-04-25T02:56:29.866Z,100114.66
2023-04-25T02:58:57.606Z,100108.69
2023-04-25T03:01:24.902Z,100114.34
2023-04-25T03:03:52.639Z,100107.38
2023-04-25T03:06:20.066Z,100109.00
2023-04-25T03:08:47.088Z,100112.72
2023-04-25T03:11:13.939Z,100101.22
2023-04-25T03:13:42.475Z,100112.72
2023-04-25T03:16:10.899Z,100111.66
2023-04-25T03:18:38.068Z,100110.00
2023-04-25T03:21:05.319Z,100118.59
2023-04-25T03:23:32.528Z,100114.00
2023-04-25T03:25:59.580Z,100106.22
2023-04-25T03:28:26.767Z,100107.31
2023-04-25T03:30:55.322Z,100109.75
2023-04-25T03:33:23.016Z,100116.22
2023-04-25T03:35:50.828Z,100107.03
2023-04-25T03:38:18.547Z,100109.69
2023-04-25T03:40:46.052Z,100116.41
2023-04-25T03:43:20.730Z,100119.41
2023-04-25T03:45:53.605Z,100114.84
2023-04-25T03:48:23.652Z,100119.69
2023-04-25T03:50:51.192Z,100121.25
2023-04-25T03:53:18.188Z,100119.94
2023-04-25T03:56:17.238Z,100119.09
2023-04-25T03:58:46.701Z,100118.03
2023-04-25T04:01:15.675Z,100125.00
2023-04-25T04:03:43.194Z,100141.63
2023-04-25T04:06:11.629Z,100129.53
2023-04-25T04:08:43.972Z,100136.47
2023-04-25T04:11:11.995Z,100132.22
2023-04-25T04:13:39.262Z,100140.81
2023-04-25T04:16:07.484Z,100153.13
2023-04-25T04:18:34.884Z,100149.13
2023-04-25T04:21:02.746Z,100148.84
2023-04-25T04:23:32.560Z,100141.06
2023-04-25T04:26:01.040Z,100152.31
2023-04-25T04:28:41.785Z,100145.34
2023-04-25T04:31:38.228Z,100141.00
2023-04-25T04:34:06.214Z,100147.47
2023-04-25T04:36:34.811Z,100150.94
2023-04-25T04:39:03.249Z,100146.91
2023-04-25T04:41:37.697Z,100156.06
2023-04-25T04:44:23.776Z,100154.75
2023-04-25T04:47:15.222Z,100163.31
2023-04-25T04:50:01.291Z,100154.75
2023-04-25T04:52:51.845Z,100155.53
2023-04-25T04:55:42.034Z,100155.00
2023-04-25T04:58:22.893Z,100164.38
2023-04-25T05:01:17.036Z,100167.88
2023-04-25T05:04:02.383Z,100161.72
2023-04-25T05:06:49.093Z,100149.63
2023-04-25T05:09:39.376Z,100158.78
2023-04-25T05:12:25.047Z,100168.47
2023-04-25T05:15:27.150Z,100155.66
2023-04-25T05:18:12.853Z,100158.06
2023-04-25T05:21:06.414Z,100164.28
2023-04-25T05:23:48.835Z,100159.25
2023-04-25T05:26:34.916Z,100167.56
2023-04-25T05:29:13.063Z,100171.06
2023-04-25T05:31:54.067Z,100164.34
2023-04-25T05:34:21.088Z,100173.44
2023-04-25T05:37:02.959Z,100166.50
2023-04-25T05:39:31.212Z,100167.81
2023-04-25T05:42:28.565Z,100164.34
2023-04-25T05:44:58.459Z,100174.03
2023-04-25T05:47:37.047Z,100174.84
2023-04-25T05:50:12.132Z,100187.47
2023-04-25T05:52:49.492Z,100196.59
2023-04-25T05:55:25.680Z,100175.91
2023-04-25T05:57:53.653Z,100187.47
2023-04-25T06:00:22.872Z,100180.81
2023-04-25T06:02:50.732Z,100193.44
2023-04-25T06:05:19.061Z,100186.53
2023-04-25T06:07:47.914Z,100198.38
2023-04-25T06:10:16.040Z,100190.66
2023-04-25T06:12:43.564Z,100203.31
2023-04-25T06:15:26.630Z,100192.03
2023-04-25T06:17:56.123Z,100204.88
2023-04-25T06:20:25.619Z,100197.91
2023-04-25T06:22:54.653Z,100203.81
2023-04-25T06:25:27.617Z,100190.16
2023-04-25T06:27:55.489Z,100196.75
2023-04-25T06:30:26.589Z,100202.16
2023-04-25T06:32:57.789Z,100197.06
2023-04-25T06:35:25.322Z,100203.56
2023-04-25T06:37:52.278Z,100201.00
2023-04-25T06:40:22.318Z,100208.53
2023-04-25T06:42:49.325Z,100195.97
2023-04-25T06:45:36.594Z,100205.19
2023-04-25T06:48:04.561Z,100197.22
2023-04-25T06:50:31.772Z,100199.16
2023-04-25T06:52:58.758Z,100194.09
2023-04-25T06:55:26.117Z,100205.41
2023-04-25T06:58:11.674Z,100199.00
2023-04-25T07:00:50.664Z,100194.41
2023-04-25T07:03:19.905Z,100184.22
2023-04-25T07:05:47.582Z,100198.72
2023-04-25T07:08:14.516Z,100203.22
2023-04-25T07:10:42.305Z,100202.72
2023-04-25T07:13:09.340Z,100210.25
2023-04-25T07:15:36.973Z,100210.25
2023-04-25T07:18:04.085Z,100219.38
2023-04-25T07:20:33.832Z,100232.75
2023-04-25T07:23:01.551Z,100219.31
2023-04-25T07:25:28.947Z,100225.19
2023-04-25T07:27:56.612Z,100228.69
2023-04-25T07:30:23.772Z,100216.59
2023-04-25T07:32:51.654Z,100226.78
2023-04-25T07:35:18.912Z,100231.38
2023-04-25T07:37:46.342Z,100234.03
2023-04-25T07:40:17.528Z,100243.38
2023-04-25T07:42:48.743Z,100238.78
2023-04-25T07:45:19.894Z,100233.44
2023-04-25T07:47:47.493Z,100254.66
2023-04-25T07:50:14.485Z,100253.34
2023-04-25T07:52:41.611Z,100244.78
2023-04-25T07:55:24.222Z,100253.41
2023-04-25T07:58:00.311Z,100257.50
2023-04-25T08:00:30.321Z,100262.41
2023-04-25T08:03:17.457Z,100254.63
2023-04-25T08:05:45.445Z,100267.34
2023-04-25T08:08:13.624Z,100262.03
2023-04-25T08:10:41.921Z,100274.41
2023-04-25T08:13:09.631Z,100277.66
2023-04-25T08:15:37.503Z,100276.88
2023-04-25T08:18:04.916Z,100270.72
2023-04-25T08:20:32.856Z,100277.16
2023-04-25T08:23:01.999Z,100279.84
2023-04-25T08:26:01.346Z,100272.59
2023-04-25T08:28:30.195Z,100278.56
2023-04-25T08:30:59.780Z,100278.91
2023-04-25T08:33:33.772Z,100292.41
2023-04-25T08:36:08.329Z,100310.13
2023-04-25T08:41:07.821Z,100301.13
2023-04-25T08:43:36.732Z,100298.25
2023-04-25T08:46:04.725Z,100306.06
2023-04-25T08:48:42.298Z,100303.47
2023-04-25T08:51:11.617Z,100288.91
2023-04-25T08:53:43.833Z,100305.28
2023-04-25T08:56:14.301Z,100303.41
2023-04-25T08:58:41.881Z,100311.50
2023-04-25T09:01:09.321Z,100315.53
2023-04-25T09:03:46.006Z,100310.41
2023-04-25T09:06:13.913Z,100306.88
2023-04-25T09:08:41.561Z,100306.06
2023-04-25T09:11:09.124Z,100327.03
2023-04-25T09:13:36.408Z,100326.19
2023-04-25T09:16:26.647Z,100319.66
2023-04-25T09:19:40.909Z,100335.88
2023-04-25T09:22:29.365Z,100326.59
2023-04-25T09:24:56.794Z,100329.97
2023-04-25T09:27:27.957Z,100328.84
2023-04-25T09:30:18.811Z,100320.38
2023-04-25T09:33:11.180Z,100326.69
2023-04-25T09:35:45.097Z,100336.09
2023-04-25T09:38:20.046Z,100334.25
2023-04-25T09:41:11.588Z,100323.63
2023-04-25T09:43:47.835Z,100311.94
2023-04-25T09:46:16.646Z,100310.72
2023-04-25T09:48:54.615Z,100316.00
2023-04-25T09:51:36.366Z,100322.19
2023-04-25T09:54:05.324Z,100295.88
2023-04-25T09:56:38.988Z,100305.16
2023-04-25T09:59:10.076Z,100311.13
2023-04-25T10:01:40.722Z,100319.31
2023-04-25T10:04:30.649Z,100307.34
2023-04-25T10:07:08.394Z,100325.56
2023-04-25T10:09:40.996Z,100324.44
2023-04-25T10:12:09.172Z,100322.09
2023-04-25T10:14:36.953Z,100343.00
2023-04-25T10:17:04.076Z,100346.16
2023-04-25T10:19:31.383Z,100346.31
2023-04-25T10:22:32.219Z,100344.28
2023-04-25T10:24:59.742Z,100343.78
2023-04-25T10:27:29.424Z,100343.22
2023-04-25T10:30:17.404Z,100346.59
2023-04-25T10:32:46.849Z,100336.56
2023-04-25T10:35:17.267Z,100346.53
2023-04-25T10:37:59.673Z,100333.94
2023-04-25T10:40:27.201Z,100344.94
2023-04-25T10:42:57.664Z,100367.75
2023-04-25T10:45:24.845Z,100365.03
2023-04-25T10:47:52.036Z,100365.47
2023-04-25T10:50:19.165Z,100365.75
2023-04-25T10:52:46.317Z,100360.94
2023-04-25T10:55:13.598Z,100373.94
2023-04-25T10:57:50.721Z,100377.97
2023-04-25T11:00:20.573Z,100379.00
2023-04-25T11:02:49.827Z,100382.72
2023-04-25T11:05:43.770Z,100386.63
2023-04-25T11:08:15.229Z,100393.88
2023-04-25T11:10:42.830Z,100396.91
2023-04-25T11:13:10.262Z,100383.22
2023-04-25T11:15:38.573Z,100384.59
2023-04-25T11:18:06.254Z,100385.44
2023-04-25T11:20:33.497Z,100409.41
2023-04-25T11:23:01.124Z,100404.53
2023-04-25T11:25:29.126Z,100379.00
2023-04-25T11:27:58.898Z,100406.56
2023-04-25T11:30:28.092Z,100406.59
2023-04-25T11:32:55.253Z,100416.91
2023-04-25T11:35:24.413Z,100430.44
2023-04-25T11:37:51.778Z,100421.84
2023-04-25T11:40:18.968Z,100436.69
2023-04-25T11:42:48.383Z,100438.31
2023-04-25T11:45:16.247Z,100441.25
2023-04-25T11:47:43.545Z,100441.81
2023-04-25T11:50:11.351Z,100444.50
2023-04-25T11:52:48.898Z,100439.38
2023-04-25T11:55:20.947Z,100453.09
2023-04-25T11:57:51.373Z,100435.88
2023-04-25T12:00:22.722Z,100443.94
2023-04-25T12:02:55.948Z,100431.56
2023-04-25T12:05:32.794Z,100449.06
2023-04-25T12:08:17.495Z,100452.03
2023-04-25T12:10:46.907Z,100461.72
2023-04-25T12:13:29.287Z,100449.59
2023-04-25T12:15:59.297Z,100462.81
2023-04-25T12:18:29.594Z,100455.25
2023-04-25T12:20:57.093Z,100455.25
2023-04-25T12:23:29.373Z,100467.66
2023-04-25T12:25:57.465Z,100463.13
2023-04-25T12:28:28.493Z,100463.91
2023-04-25T12:31:07.403Z,100457.41
2023-04-25T12:33:37.835Z,100463.63
2023-04-25T12:36:10.355Z,100457.94
2023-04-25T12:38:42.793Z,100454.66
2023-04-25T12:41:10.250Z,100449.47
2023-04-25T12:43:37.410Z,100449.94
2023-04-25T12:46:09.206Z,100455.28
2023-04-25T12:48:39.650Z,100462.06
2023-04-25T12:51:08.055Z,100455.63
2023-04-25T12:53:39.254Z,100445.56
2023-04-25T12:56:09.146Z,100439.13
2023-04-25T12:58:37.480Z,100443.53
2023-04-25T13:01:06.824Z,100433.31
2023-04-25T13:03:35.844Z,100448.50
2023-04-25T13:06:03.275Z,100453.22
2023-04-25T13:08:31.527Z,100450.38
2023-04-25T13:10:58.582Z,100442.44
2023-04-25T13:13:29.920Z,100454.56
2023-04-25T13:15:57.088Z,100454.53
2023-04-25T13:18:27.587Z,100452.00
2023-04-25T13:20:55.204Z,100456.78
2023-04-25T13:23:22.912Z,100450.06
2023-04-25T13:25:50.198Z,100454.81
2023-04-25T13:28:17.396Z,100451.03
2023-04-25T13:30:45.251Z,100446.50
2023-04-25T13:33:13.392Z,100431.41
2023-04-25T13:35:43.236Z,100430.44
2023-04-25T13:38:10.234Z,100424.50
2023-04-25T13:40:37.747Z,100444.22
2023-04-25T13:43:04.929Z,100440.94
2023-04-25T13:45:33.428Z,100443.59
2023-04-25T13:48:01.611Z,100445.75
2023-04-25T13:50:28.989Z,100463.91
2023-04-25T13:52:56.048Z,100484.28
2023-04-25T13:55:23.095Z,100466.25
2023-04-25T13:57:50.337Z,100478.72
2023-04-25T14:00:17.808Z,100469.09
2023-04-25T14:02:44.869Z,100481.34
2023-04-25T14:05:11.965Z,100486.13
2023-04-25T14:07:39.181Z,100471.13
2023-04-25T14:10:06.921Z,100474.63
2023-04-25T14:12:34.386Z,100481.66
2023-04-25T14:15:01.555Z,100487.06
2023-04-25T14:17:28.685Z,100483.00
2023-04-25T14:19:56.011Z,100491.91
2023-04-25T14:22:23.389Z,100495.41
2023-04-25T14:24:50.318Z,100512.53
2023-04-25T14:27:17.377Z,100507.97
2023-04-25T14:29:44.735Z,100497.22
2023-04-25T14:32:12.035Z,100514.94
2023-04-25T14:34:39.526Z,100529.00
2023-04-25T14:37:06.598Z,100540.13
2023-04-25T14:39:33.596Z,100533.44
2023-04-25T14:42:00.855Z,100534.78
2023-04-25T14:44:27.907Z,100527.47
2023-04-25T14:46:54.871Z,100527.97
2023-04-25T14:49:22.011Z,100525.81
2023-04-25T14:51:50.757Z,100527.69
2023-04-25T14:54:19.185Z,100533.38
2023-04-25T14:56:46.064Z,100533.94
2023-04-25T14:59:13.118Z,100534.50
2023-04-25T15:01:41.270Z,100525.84
2023-04-25T15:04:08.627Z,100539.06
2023-04-25T15:06:35.919Z,100549.03
2023-04-25T15:09:02.906Z,100553.09
2023-04-25T15:11:30.358Z,100539.88
2023-04-25T15:13:57.862Z,100544.75
2023-04-25T15:16:24.949Z,100553.09
2023-04-25T15:18:51.871Z,100570.34
2023-04-25T15:21:19.004Z,100550.88
2023-04-25T15:23:46.436Z,100553.28
2023-04-25T15:26:13.834Z,100557.03
2023-04-25T15:28:41.143Z,100565.34
2023-04-25T15:31:08.668Z,100556.69
2023-04-25T15:33:35.608Z,100538.63
2023-04-25T15:36:04.566Z,100554.25
2023-04-25T15:38:31.634Z,100546.41
2023-04-25T15:40:58.557Z,100556.41
2023-04-25T15:43:25.589Z,100550.78
2023-04-25T15:45:52.513Z,100545.72
2023-04-25T15:48:20.115Z,100568.06
2023-04-25T15:50:47.720Z,100560.28
2023-04-25T15:53:15.274Z,100551.13
2023-04-25T15:55:44.827Z,100557.88
2023-04-25T15:58:13.222Z,100570.06
2023-04-25T16:00:42.195Z,100562.28
2023-04-25T16:03:10.404Z,100561.47
2023-04-25T16:05:40.557Z,100564.16
2023-04-25T16:08:10.260Z,100570.63
2023-04-25T16:10:39.254Z,100556.59
2023-04-25T16:13:08.819Z,100566.03
2023-04-25T16:15:37.563Z,100563.63
2023-04-25T16:18:06.157Z,100549.34
2023-04-25T16:20:34.845Z,100560.66
2023-04-25T16:23:04.164Z,100566.81
2023-04-25T16:25:32.763Z,100563.00
2023-04-25T16:28:01.391Z,100562.72
2023-04-25T16:30:28.491Z,100555.16
2023-04-25T16:32:57.368Z,100566.69
2023-04-25T16:35:25.548Z,100568.53
2023-04-25T16:37:52.966Z,100565.22
2023-04-25T16:40:20.895Z,100572.06
2023-04-25T16:42:47.868Z,100576.00
2023-04-25T16:45:16.792Z,100580.72
2023-04-25T16:47:44.091Z,100586.53
2023-04-25T16:50:11.623Z,100587.50
2023-04-25T16:52:38.576Z,100594.38
2023-04-25T16:55:08.001Z,100585.69
2023-04-25T16:57:37.551Z,100598.22
2023-04-25T17:00:06.812Z,100589.72
2023-04-25T17:02:34.091Z,100611.41
2023-04-25T17:05:03.522Z,100602.44
2023-04-25T17:07:31.624Z,100597.56
2023-04-25T17:10:02.131Z,100598.84
2023-04-25T17:12:31.449Z,100604.41
2023-04-25T17:15:01.231Z,100603.53
2023-04-25T17:17:29.353Z,100600.28
2023-04-25T17:19:57.519Z,100607.53
2023-04-25T17:22:28.952Z,100605.06
2023-04-25T17:24:57.712Z,100619.53
2023-04-25T17:27:27.295Z,100608.75
2023-04-25T17:29:56.567Z,100616.00
2023-04-25T17:32:28.528Z,100622.28
2023-04-25T17:34:57.707Z,100622.47
2023-04-25T17:37:29.297Z,100624.78
2023-04-25T17:39:58.279Z,100628.44
2023-04-25T17:42:27.516Z,100635.38
2023-04-25T17:44:57.136Z,100639.03
2023-04-25T17:47:26.333Z,100627.69
2023-04-25T17:49:55.326Z,100637.22
2023-04-25T17:52:25.740Z,100641.31
2023-04-25T17:54:54.417Z,100638.72
2023-04-25T17:57:25.668Z,100649.59
2023-04-25T17:59:57.136Z,100646.25
2023-04-25T18:02:26.430Z,100641.31
2023-04-25T18:04:55.388Z,100655.69
2023-04-25T18:07:25.212Z,100644.56
2023-04-25T18:09:54.007Z,100656.00
2023-04-25T18:12:22.925Z,100647.78
2023-04-25T18:14:53.887Z,100651.09
2023-04-25T18:17:25.740Z,100653.44
2023-04-25T18:19:55.427Z,100660.56
2023-04-25T18:22:24.158Z,100661.78
2023-04-25T18:24:53.190Z,100668.09
2023-04-25T18:27:23.056Z,100667.47
2023-04-25T18:30:13.115Z,100670.06
2023-04-25T18:32:42.513Z,100680.66
2023-04-25T18:35:13.256Z,100678.56
2023-04-25T18:37:42.443Z,100690.06
2023-04-25T18:40:15.931Z,100687.72
2023-04-25T18:42:43.888Z,100689.97
2023-04-25T18:45:11.811Z,100695.56
2023-04-25T18:47:39.013Z,100701.63
2023-04-25T18:50:08.329Z,100709.78
2023-04-25T18:52:35.779Z,100719.19
2023-04-25T18:55:02.858Z,100713.97
2023-04-25T18:57:30.151Z,100713.41
2023-04-25T18:59:57.132Z,100720.63
2023-04-25T19:02:24.360Z,100727.25
2023-04-25T19:04:51.341Z,100727.09
2023-04-25T19:07:20.713Z,100729.19
2023-04-25T19:09:47.755Z,100738.28
2023-04-25T19:12:14.882Z,100738.03
2023-04-25T19:14:42.770Z,100735.13
2023-04-25T19:17:09.878Z,100730.25
2023-04-25T19:19:36.858Z,100726.28
2023-04-25T19:22:04.220Z,100732.44
2023-04-25T19:24:33.932Z,100724.91
2023-04-25T19:27:02.792Z,100729.78
2023-04-25T19:29:30.184Z,100740.13
2023-04-25T19:31:59.422Z,100738.16
2023-04-25T19:34:27.141Z,100738.63
2023-04-25T19:36:54.165Z,100748.16
2023-04-25T19:39:22.523Z,100746.19
2023-04-25T19:41:49.587Z,100737.81
2023-04-25T19:44:16.668Z,100751.06
2023-04-25T19:46:46.451Z,100750.16
2023-04-25T19:49:13.454Z,100758.28
2023-04-25T19:51:40.789Z,100761.41
2023-04-25T19:54:08.704Z,100755.09
2023-04-25T19:56:35.659Z,100748.84
2023-04-25T19:59:02.969Z,100754.63
2023-04-25T20:01:30.610Z,100751.38
2023-04-25T20:03:57.718Z,100757.41
2023-04-25T20:06:24.920Z,100755.44
2023-04-25T20:08:54.973Z,100749.97
2023-04-25T20:11:22.365Z,100760.66
2023-04-25T20:13:49.765Z,100761.81
2023-04-25T20:16:19.947Z,100767.97
2023-04-25T20:18:48.738Z,100769.47
2023-04-25T20:21:16.828Z,100767.84
2023-04-25T20:23:44.067Z,100759.47
2023-04-25T20:26:12.869Z,100775.72
2023-04-25T20:28:41.646Z,100766.53
2023-04-25T20:31:10.902Z,100773.72
2023-04-25T20:33:38.666Z,100771.75
2023-04-25T20:36:05.734Z,100766.88
2023-04-25T20:38:32.843Z,100773.47
2023-04-25T20:41:00.428Z,100772.06
2023-04-25T20:43:27.611Z,100770.09
2023-04-25T20:45:54.854Z,100774.38
2023-04-25T20:48:22.338Z,100776.09
2023-04-25T20:50:49.227Z,100775.38
2023-04-25T20:53:16.746Z,100779.91
2023-04-25T20:55:44.173Z,100775.00
2023-04-25T20:58:11.329Z,100782.22
2023-04-25T21:00:38.889Z,100786.78
2023-04-25T21:03:07.118Z,100791.31
2023-04-25T21:05:34.248Z,100785.59
2023-04-25T21:08:01.488Z,100788.72
2023-04-25T21:10:28.640Z,100784.44
2023-04-25T21:12:56.598Z,100798.38
2023-04-25T21:15:24.818Z,100793.63
2023-04-25T21:17:52.488Z,100792.56
2023-04-25T21:20:21.811Z,100797.69
2023-04-25T21:22:52.971Z,100795.59
2023-04-25T21:25:30.847Z,100798.91
2023-04-25T21:27:59.305Z,100793.16
2023-04-25T21:30:26.928Z,100813.69
2023-04-25T21:32:54.271Z,100804.06
2023-04-25T21:35:22.924Z,100801.84
2023-04-25T21:37:51.006Z,100797.63
2023-04-25T21:40:18.337Z,100803.00
2023-04-25T21:42:49.922Z,100811.03
2023-04-25T21:45:17.389Z,100806.13
2023-04-25T21:47:46.899Z,100808.88
2023-04-25T21:50:14.985Z,100814.22
2023-04-25T21:52:42.019Z,100822.06
2023-04-25T21:55:10.553Z,100824.97
2023-04-25T21:57:37.475Z,100823.63
2023-04-25T22:00:20.818Z,100825.09
2023-04-25T22:02:48.952Z,100835.19
2023-04-25T22:05:23.332Z,100829.25
2023-04-25T22:07:51.607Z,100836.88
2023-04-25T22:10:20.604Z,100837.97
2023-04-25T22:12:50.974Z,100836.56
2023-04-25T22:15:19.547Z,100838.63
2023-04-25T22:17:47.411Z,100844.84
2023-04-25T22:20:15.728Z,100835.44
2023-04-25T22:22:44.484Z,100839.13
2023-04-25T22:25:14.545Z,100847.78
2023-04-25T22:27:43.777Z,100856.78
2023-04-25T22:30:14.689Z,100865.81
2023-04-25T22:32:43.601Z,100858.63
2023-04-25T22:35:11.896Z,100866.09
2023-04-25T22:37:39.082Z,100868.97
2023-04-25T22:40:07.589Z,100877.41
2023-04-25T22:42:42.325Z,100863.47
2023-04-25T22:45:11.244Z,100860.44
2023-04-25T22:47:39.198Z,100867.00
2023-04-25T22:50:13.072Z,100857.78
2023-04-25T22:52:42.385Z,100873.81
2023-04-25T22:55:11.079Z,100871.56
2023-04-25T22:57:40.856Z,100865.28
2023-04-25T23:00:19.812Z,100874.06
2023-04-25T23:02:47.461Z,100876.19
2023-04-25T23:05:15.596Z,100879.66
2023-04-25T23:07:44.703Z,100874.97
2023-04-25T23:10:12.193Z,100874.78
2023-04-25T23:12:40.230Z,100886.06
2023-04-25T23:15:08.696Z,100878.91
2023-04-25T23:17:36.901Z,100882.81
2023-04-25T23:20:07.568Z,100879.75
2023-04-25T23:22:35.274Z,100889.63
2023-04-25T23:25:02.654Z,100897.41
2023-04-25T23:27:29.621Z,100879.41
2023-04-25T23:29:58.053Z,100895.16
2023-04-25T23:32:26.570Z,100887.00
2023-04-25T23:34:53.731Z,100896.25
2023-04-25T23:37:20.956Z,100900.75
2023-04-25T23:39:50.878Z,100893.59
2023-04-25T23:42:19.102Z,100899.16
2023-04-25T23:44:46.339Z,100903.88
2023-04-25T23:47:17.368Z,100914.94
2023-04-25T23:49:45.686Z,100904.28
2023-04-25T23:52:13.066Z,100922.53
2023-04-25T23:54:40.074Z,100908.19
2023-04-25T23:57:07.129Z,100905.75
2023-04-25T23:59:34.458Z,100920.06
